EmailTwitter


Surface observations / United States / KJFK (74486)

Regions: Quebec | Canada | USA | Europe | France | UK | Elsewhere
Station
Display
Info & Location for KJFK (74486) | Help decoding METAR

Weather Conditions observed on 2018/08/18 at 07:51 UTC at NEW YORK/JF KENN, NY (KJFK)

Sky conditions: overcast.

Temperature: 24.0 Celsius.

Dewpoint: 24.0 Celsius.

Relative Humidity: 100%

Humidex: 35.

Winds: South-southwest at 11 km/h or 6 knots.

Mean Sea level Pressure: 101.25 kilopascals.

Altimeter Setting (QNH): 101.25 kilopascals or 29.90 inches of mercury.

Horizontal visibility: 10.00 statute miles or 16.00 kilometers.

Height of the Ceiling: 3048 metres ( 10000 feet ).

There was 0.00 millimeters of precipitation in the past 6 hours.

Coded METAR:

KJFK 180751Z 20006KT 10SM SCT026 BKN100 OVC160 24/24 A2990 RMK AO2 LTG DSNT S

RAB28E45 SLP125 P0000 T02390239=